Weather Data

Pearl Creek Farm: 8878 N Farm Road 75, Walnut Grove MO 65770

<== Previous Day (Tuesday 01 Aug 2017) | Next Day (Thursday 03 Aug 2017) ==>

Summary Precipitation Data For Wednesday 02 August 2017

ElementValueUnits
Precipitation0"
Notes(none)
SourcePearl Creek Farm

Summary Temperature Data For Wednesday 02 August 2017

ElementValueUnits
High Temperature87 oF
Low Temperature68 oF
Average Temperature76 oF
High Humidity100 %
Low Humidity45 %
Average Humidity75 %
SourceSpringfield-Branson National Airport (SGF)

Detail Temperature Data For Wednesday 02 August 2017

Date / TimeTemp (F)RH (%)Dew Pt (F)Report Date / TimeSource
2017-08-02 05:52:00 68 100 68.0 2017-12-29 17:00:26.17417 Springfield-Branson National Airport (SGF)
2017-08-02 06:52:00 69 96 68.0 2017-12-29 17:00:26.17417 Springfield-Branson National Airport (SGF)
2017-08-02 07:52:00 70 97 69.0 2017-12-29 17:00:26.17417 Springfield-Branson National Airport (SGF)
2017-08-02 14:52:00 87 48 65.0 2017-12-29 17:00:26.17417 Springfield-Branson National Airport (SGF)
2017-08-02 00:52:00 71 90 68.0 2017-12-29 17:00:26.17417 Springfield-Branson National Airport (SGF)
2017-08-02 01:52:00 70 93 68.0 2017-12-29 17:00:26.17417 Springfield-Branson National Airport (SGF)
2017-08-02 02:52:00 69 96 68.0 2017-12-29 17:00:26.17417 Springfield-Branson National Airport (SGF)
2017-08-02 03:52:00 69 96 68.0 2017-12-29 17:00:26.17417 Springfield-Branson National Airport (SGF)
2017-08-02 04:52:00 68 100 68.0 2017-12-29 17:00:26.17417 Springfield-Branson National Airport (SGF)
2017-08-02 08:52:00 76 82 70.0 2017-12-29 17:00:26.17417 Springfield-Branson National Airport (SGF)
2017-08-02 09:52:00 80 69 69.0 2017-12-29 17:00:26.17417 Springfield-Branson National Airport (SGF)
2017-08-02 10:52:00 81 65 68.0 2017-12-29 17:00:26.17417 Springfield-Branson National Airport (SGF)
2017-08-02 11:52:00 84 55 66.0 2017-12-29 17:00:26.17417 Springfield-Branson National Airport (SGF)
2017-08-02 12:52:00 86 49 65.0 2017-12-29 17:00:26.17417 Springfield-Branson National Airport (SGF)
2017-08-02 13:52:00 86 48 64.0 2017-12-29 17:00:26.17417 Springfield-Branson National Airport (SGF)
2017-08-02 15:52:00 86 48 64.0 2017-12-29 17:00:26.17417 Springfield-Branson National Airport (SGF)
2017-08-02 16:52:00 87 45 63.0 2017-12-29 17:00:26.17417 Springfield-Branson National Airport (SGF)
2017-08-02 17:52:00 81 62 67.0 2017-12-29 17:00:26.17417 Springfield-Branson National Airport (SGF)
2017-08-02 18:52:00 80 62 66.0 2017-12-29 17:00:26.17417 Springfield-Branson National Airport (SGF)
2017-08-02 19:52:00 77 71 67.0 2017-12-29 17:00:26.17417 Springfield-Branson National Airport (SGF)
2017-08-02 20:52:00 75 76 67.0 2017-12-29 17:00:26.17417 Springfield-Branson National Airport (SGF)
2017-08-02 21:52:00 72 84 67.0 2017-12-29 17:00:26.17417 Springfield-Branson National Airport (SGF)
2017-08-02 22:52:00 72 84 67.0 2017-12-29 17:00:26.17417 Springfield-Branson National Airport (SGF)
2017-08-02 23:52:00 69 90 66.0 2017-12-29 17:00:26.17417 Springfield-Branson National Airport (SGF)

A total of 24 rows are displayed.